Time;durP1;ratioP1;P1;durP2;ratioP2;P2;SDS_P1;SDS_P2;PMS_P1;PMS_P2;Temp;Humidity;BMP_temperature;BMP_pressure;BME280_temperature;BME280_humidity;BME280_pressure;Samples;Min_cycle;Max_cycle;Signal;HPM_P1;HPM_P2
2023/01/14 00:01:18;;;;;;;0.80;0.80;;;7.10;73.80;;;5.99;61.42;95030.91;5035884;28;20204;-33
2023/01/14 00:03:46;;;;;;;0.80;0.80;;;7.10;73.90;;;5.96;61.49;95019.97;5037150;28;20184;-33
2023/01/14 00:06:18;;;;;;;0.70;0.70;;;7.00;73.80;;;5.93;61.55;95032.34;5036557;28;20283;-33
2023/01/14 00:08:45;;;;;;;0.80;0.80;;;7.00;73.80;;;5.95;61.53;95032.19;5036832;28;20197;-34
2023/01/14 00:11:14;;;;;;;0.80;0.80;;;7.00;73.90;;;5.91;61.22;95031.69;5037040;28;20235;-33
2023/01/14 00:13:42;;;;;;;0.70;0.70;;;6.90;73.70;;;5.86;61.57;95035.72;5035948;28;20239;-33
2023/01/14 00:16:13;;;;;;;0.70;0.70;;;6.90;73.70;;;5.82;61.28;95030.03;5036556;28;20255;-33
2023/01/14 00:18:41;;;;;;;0.77;0.77;;;6.90;73.80;;;5.79;61.43;95040.78;5036772;28;20262;-33
2023/01/14 00:21:13;;;;;;;0.70;0.70;;;6.80;73.60;;;5.74;61.39;95043.84;5036437;28;20201;-34
2023/01/14 00:23:41;;;;;;;0.80;0.80;;;6.80;73.60;;;5.70;61.63;95036.50;5036691;28;20192;-34
2023/01/14 00:26:12;;;;;;;0.80;0.80;;;6.80;74.30;;;5.68;62.24;95041.88;5036358;28;20193;-33
2023/01/14 00:28:40;;;;;;;0.70;0.70;;;6.70;74.60;;;5.69;62.67;95035.69;5036440;28;20272;-33
2023/01/14 00:31:12;;;;;;;0.60;0.60;;;6.70;75.00;;;5.72;62.17;95045.78;5036302;28;20212;-33
2023/01/14 00:33:40;;;;;;;0.70;0.70;;;6.70;74.90;;;5.72;62.38;95045.78;5036711;28;20209;-33
2023/01/14 00:36:11;;;;;;;0.70;0.70;;;6.60;75.00;;;5.72;62.78;95058.00;5018821;28;20205;-33
2023/01/14 00:38:38;;;;;;;0.50;0.50;;;6.60;75.10;;;5.73;62.61;95057.81;5051774;28;20545;-33
2023/01/14 00:41:12;;;;;;;0.70;0.70;;;6.60;75.20;;;5.78;62.81;95059.97;5036361;28;20197;-33
2023/01/14 00:43:45;;;;;;;0.70;0.70;;;6.60;75.50;;;5.77;62.85;95050.50;5036162;28;20249;-33
2023/01/14 00:46:15;;;;;;;0.70;0.70;;;6.70;75.40;;;5.84;63.42;95064.53;5036101;28;20510;-33
2023/01/14 00:48:42;;;;;;;0.80;0.80;;;6.60;75.80;;;5.87;63.00;95050.38;5051650;28;20628;-34
2023/01/14 00:51:11;;;;;;;0.70;0.70;;;6.60;75.80;;;5.92;63.14;95050.72;5034961;28;20589;-33
2023/01/14 00:53:40;;;;;;;0.70;0.70;;;6.70;75.90;;;5.99;63.18;95058.75;5034836;28;20227;-33
2023/01/14 00:56:08;;;;;;;0.70;0.70;;;6.70;76.00;;;6.05;63.11;95056.31;5035907;28;20203;-33
2023/01/14 00:58:35;;;;;;;0.80;0.80;;;6.70;76.10;;;6.12;62.93;95059.09;5035903;28;20214;-33
2023/01/14 01:01:03;;;;;;;0.80;0.80;;;6.80;76.10;;;6.19;62.79;95060.09;5051335;28;20543;-33
2023/01/14 01:03:31;;;;;;;0.85;0.85;;;6.80;76.20;;;6.27;63.18;95066.28;5035680;28;20207;-33
2023/01/14 01:05:58;;;;;;;0.70;0.70;;;6.80;76.20;;;6.34;62.70;95059.44;5033773;28;20204;-34
2023/01/14 01:08:25;;;;;;;0.70;0.70;;;6.90;76.00;;;6.39;62.49;95067.59;5034739;28;20632;-33
2023/01/14 01:10:54;;;;;;;0.70;0.70;;;7.00;75.90;;;6.44;62.75;95069.72;5051530;28;20601;-33
2023/01/14 01:13:24;;;;;;;0.70;0.70;;;7.00;75.90;;;6.49;62.37;95075.25;5035585;28;20244;-33
2023/01/14 01:15:53;;;;;;;0.60;0.60;;;7.10;75.80;;;6.52;62.27;95080.16;5035604;28;20173;-34
2023/01/14 01:18:20;;;;;;;0.80;0.80;;;7.20;75.70;;;6.55;62.14;95075.44;5035537;28;20645;-33
2023/01/14 01:20:47;;;;;;;0.70;0.70;;;7.20;75.50;;;6.59;62.07;95077.69;5051550;28;20288;-33
2023/01/14 01:23:15;;;;;;;0.70;0.70;;;7.30;75.50;;;6.63;62.16;95085.03;5034632;28;20200;-33
2023/01/14 01:25:42;;;;;;;0.70;0.70;;;7.40;75.40;;;6.65;61.98;95082.25;5035828;28;20192;-33
2023/01/14 01:28:09;;;;;;;0.70;0.70;;;7.40;75.30;;;6.72;61.69;95088.44;5035076;28;20208;-33
2023/01/14 01:30:36;;;;;;;0.70;0.70;;;7.40;75.20;;;6.81;61.76;95082.25;5034802;28;20193;-33
2023/01/14 01:33:03;;;;;;;0.70;0.70;;;7.40;75.30;;;6.86;61.27;95068.69;5034154;28;20267;-34
2023/01/14 01:35:30;;;;;;;0.70;0.70;;;7.50;75.10;;;6.93;61.40;95085.31;5035181;28;20181;-33
2023/01/14 01:37:58;;;;;;;0.70;0.70;;;7.50;75.80;;;6.99;61.05;95070.81;5035204;28;20208;-33
2023/01/14 01:40:24;;;;;;;0.70;0.70;;;7.50;74.90;;;7.04;60.95;95066.75;5035628;28;20205;-33
2023/01/14 01:42:54;;;;;;;0.70;0.70;;;7.60;75.00;;;7.11;60.62;95064.28;5035002;28;20232;-33
2023/01/14 01:45:47;;;;;;;0.70;0.70;;;7.60;74.70;;;7.13;60.30;95064.94;5035129;28;20185;-34
2023/01/14 01:48:22;;;;;;;0.80;0.80;;;7.70;74.40;;;7.14;60.32;95071.78;5035193;28;20289;-34
2023/01/14 01:51:04;;;;;;;0.70;0.70;;;7.80;74.30;;;7.15;60.20;95077.81;5035089;28;20612;-33
2023/01/14 01:53:37;;;;;;;0.70;0.70;;;7.80;74.30;;;7.12;60.30;95081.56;5034022;28;20308;-34
2023/01/14 01:56:06;;;;;;;0.70;0.70;;;7.80;74.30;;;7.10;59.86;95074.88;5034021;28;20177;-34
2023/01/14 01:58:34;;;;;;;0.60;0.60;;;7.80;74.30;;;7.08;60.02;95084.66;5033908;28;20201;-33
2023/01/14 02:01:02;;;;;;;0.70;0.70;;;7.80;74.30;;;7.05;60.21;95089.25;5017716;28;20207;-33
2023/01/14 02:03:44;;;;;;;0.80;0.80;;;7.80;74.30;;;7.04;60.38;95092.81;5034891;28;20181;-33
2023/01/14 02:06:12;;;;;;;0.70;0.70;;;7.80;74.30;;;7.04;60.35;95086.78;5017454;28;20212;-33
2023/01/14 02:08:46;;;;;;;0.70;0.70;;;7.80;74.30;;;7.07;60.33;95088.25;5017599;28;20221;-33
2023/01/14 02:11:23;;;;;;;0.70;0.70;;;7.80;74.30;;;7.08;60.33;95095.91;5034995;28;20189;-39
2023/01/14 02:13:57;;;;;;;0.70;0.70;;;7.80;74.30;;;7.13;59.95;95095.41;5034147;28;20216;-40
2023/01/14 02:16:39;;;;;;;0.70;0.70;;;7.70;74.30;;;7.14;60.01;95092.66;5036376;28;20177;-35
2023/01/14 02:19:27;;;;;;;0.80;0.80;;;7.70;74.30;;;7.16;59.99;95115.94;5038959;28;20711;-39
2023/01/14 02:22:08;;;;;;;0.70;0.70;;;7.70;74.30;;;7.22;60.16;95117.91;5039021;28;20185;-40
2023/01/14 02:25:13;;;;;;;0.70;0.70;;;7.80;74.30;;;7.25;60.08;95125.41;5054409;28;20197;-40
2023/01/14 02:27:59;;;;;;;0.70;0.70;;;7.80;74.30;;;7.27;60.61;95128.63;5037605;28;20207;-38
2023/01/14 02:31:04;;;;;;;0.70;0.70;;;7.70;74.30;;;7.25;60.74;95137.63;5037999;28;20189;-39
2023/01/14 02:34:07;;;;;;;0.70;0.70;;;7.80;75.00;;;7.19;61.01;95131.28;5021295;28;20307;-39
2023/01/14 02:37:00;;;;;;;0.60;0.60;;;7.70;75.30;;;7.13;61.77;95129.31;5037446;28;20177;-39
2023/01/14 02:39:49;;;;;;;0.80;0.80;;;7.70;76.30;;;7.08;61.83;95129.81;5037419;28;20525;-40
2023/01/14 02:45:30;;;;;;;0.70;0.70;;;7.70;75.70;;;7.00;62.23;95124.59;5053948;28;20201;-40
2023/01/14 02:48:00;;;;;;;0.70;0.70;;;7.80;75.60;;;6.98;62.70;95123.94;5020850;28;20196;-37
2023/01/14 02:50:34;;;;;;;0.80;0.80;;;7.80;75.60;;;6.94;62.82;95110.44;5038380;28;20211;-39
2023/01/14 02:53:15;;;;;;;0.70;0.70;;;7.70;75.60;;;6.92;62.48;95122.00;5037201;28;20213;-39
2023/01/14 02:55:43;;;;;;;0.70;0.70;;;7.60;75.60;;;6.87;62.51;95125.09;5037106;28;20510;-40
2023/01/14 02:58:24;;;;;;;0.70;0.70;;;7.60;75.60;;;6.84;62.25;95122.81;5037008;28;20235;-37
2023/01/14 03:01:26;;;;;;;0.70;0.70;;;7.50;75.60;;;6.78;62.28;95126.09;5037036;28;20255;-39
2023/01/14 03:04:10;;;;;;;0.70;0.70;;;7.50;75.50;;;6.72;62.33;95123.13;5020662;28;20591;-40
2023/01/14 03:07:04;;;;;;;0.70;0.70;;;7.50;75.40;;;6.68;62.45;95124.44;5020817;28;20231;-37
2023/01/14 03:10:04;;;;;;;0.70;0.70;;;7.50;75.30;;;6.65;62.18;95132.59;5053502;28;20643;-40
2023/01/14 03:13:05;;;;;;;0.70;0.70;;;7.40;75.10;;;6.64;62.21;95132.75;5036863;28;20575;-37
2023/01/14 03:15:57;;;;;;;0.60;0.60;;;7.40;75.30;;;6.62;62.17;95132.91;5053415;28;20196;-37
2023/01/14 03:18:33;;;;;;;0.80;0.80;;;7.40;75.30;;;6.60;62.00;95142.69;5020201;28;20195;-40
2023/01/14 03:21:05;;;;;;;0.70;0.70;;;7.40;75.10;;;6.61;62.15;95138.28;5053306;28;20188;-40
2023/01/14 03:23:49;;;;;;;0.70;0.70;;;7.40;75.00;;;6.62;61.95;95140.72;5036909;28;20573;-40
2023/01/14 03:26:17;;;;;;;0.70;0.70;;;7.40;75.20;;;6.66;61.86;95139.41;5053448;28;20211;-40
2023/01/14 03:28:47;;;;;;;0.63;0.63;;;7.30;75.00;;;6.65;61.91;95131.78;5035555;28;20252;-39
2023/01/14 03:31:23;;;;;;;0.60;0.60;;;7.30;75.20;;;6.64;61.37;95128.38;5037078;28;20204;-39
2023/01/14 03:34:07;;;;;;;0.80;0.80;;;7.20;75.10;;;6.66;61.59;95134.22;5036499;28;20251;-40
2023/01/14 03:36:36;;;;;;;0.70;0.70;;;7.30;75.00;;;6.65;61.27;95124.78;5036431;28;20195;-36
2023/01/14 03:39:15;;;;;;;0.80;0.80;;;7.30;75.00;;;6.65;61.16;95142.19;5052846;28;20192;-38
2023/01/14 03:44:43;;;;;;;0.70;0.70;;;7.40;74.90;;;6.70;61.21;95159.00;5037191;28;20600;-37
2023/01/14 03:47:10;;;;;;;0.70;0.70;;;7.30;74.80;;;6.74;61.12;95159.47;5036218;28;20518;-39
2023/01/14 03:49:37;;;;;;;0.60;0.60;;;7.30;75.00;;;6.78;61.40;95168.59;5037323;28;20207;-38
2023/01/14 03:52:20;;;;;;;0.65;0.65;;;7.40;75.00;;;6.82;61.21;95166.47;5052723;28;20203;-39
2023/01/14 03:55:09;;;;;;;0.70;0.70;;;7.40;75.00;;;6.85;61.02;95164.38;5036285;28;20184;-40
2023/01/14 03:58:21;;;;;;;0.60;0.60;;;7.40;74.90;;;6.90;61.00;95179.53;5036811;28;20177;-39
2023/01/14 04:00:58;;;;;;;0.70;0.70;;;7.40;74.90;;;6.92;61.04;95180.19;5036962;28;20181;-33
2023/01/14 04:03:27;;;;;;;0.70;0.70;;;7.40;75.00;;;6.97;60.92;95185.72;5035994;28;20254;-33
2023/01/14 04:05:55;;;;;;;0.70;0.70;;;7.50;75.00;;;7.01;60.95;95181.00;5035923;28;20580;-39
2023/01/14 04:08:24;;;;;;;0.70;0.70;;;7.60;74.80;;;7.04;60.53;95181.50;5036639;28;20651;-34
2023/01/14 04:10:52;;;;;;;0.70;0.70;;;7.60;74.50;;;7.05;60.82;95184.91;5036752;28;20201;-33
2023/01/14 04:16:05;;;;;;;0.80;0.80;;;7.70;74.40;;;7.08;60.36;95191.59;5036754;28;20604;-33
2023/01/14 04:18:32;;;;;;;0.70;0.70;;;7.70;74.30;;;7.09;60.04;95182.78;5036500;28;20203;-39
2023/01/14 04:20:59;;;;;;;0.70;0.70;;;7.70;74.30;;;7.07;60.08;95185.56;5036567;28;20192;-37
2023/01/14 04:23:25;;;;;;;0.80;0.80;;;7.70;74.30;;;7.07;59.86;95189.94;5036476;28;20200;-40
2023/01/14 04:25:59;;;;;;;0.70;0.70;;;7.60;74.20;;;7.03;59.73;95179.03;5036398;28;20648;-40
2023/01/14 04:28:26;;;;;;;0.80;0.80;;;7.60;74.20;;;7.04;60.08;95184.09;5036365;28;20181;-39
2023/01/14 04:30:54;;;;;;;0.70;0.70;;;7.70;74.30;;;7.08;59.87;95182.00;5036351;28;20260;-39
2023/01/14 04:33:21;;;;;;;0.80;0.80;;;7.60;74.20;;;7.09;59.73;95193.22;5036208;28;20307;-39
2023/01/14 04:35:50;;;;;;;0.70;0.70;;;7.70;74.30;;;7.09;59.97;95191.41;5036206;28;20211;-39
2023/01/14 04:38:20;;;;;;;0.70;0.70;;;7.70;74.30;;;7.11;59.98;95186.88;5036580;28;20292;-39
2023/01/14 04:40:52;;;;;;;0.70;0.70;;;7.80;74.40;;;7.15;59.73;95185.56;5036480;28;20262;-38
2023/01/14 04:43:19;;;;;;;0.70;0.70;;;7.80;74.30;;;7.13;59.36;95192.75;5036105;28;20243;-39
2023/01/14 04:45:53;;;;;;;0.70;0.70;;;7.80;73.50;;;7.15;59.16;95189.97;5036012;28;20208;-40
2023/01/14 04:48:23;;;;;;;0.70;0.70;;;7.80;73.70;;;7.17;59.33;95190.63;5035981;28;20185;-40
2023/01/14 04:50:50;;;;;;;0.70;0.70;;;7.80;73.90;;;7.15;58.78;95185.56;5036218;28;20549;-38
2023/01/14 04:53:21;;;;;;;0.80;0.80;;;7.80;73.60;;;7.17;58.68;95188.81;5034954;28;20311;-40
2023/01/14 04:55:52;;;;;;;0.65;0.65;;;7.70;73.40;;;7.20;58.75;95193.72;5035850;28;20617;-40
2023/01/14 04:58:19;;;;;;;0.70;0.70;;;7.80;73.40;;;7.20;58.81;95190.28;5035815;28;20259;-40
2023/01/14 05:00:47;;;;;;;0.70;0.70;;;7.80;73.60;;;7.18;59.13;95197.47;5035747;28;20662;-39
2023/01/14 05:03:15;;;;;;;0.75;0.75;;;7.80;73.50;;;7.18;58.99;95197.47;5035705;28;20197;-39
2023/01/14 05:05:42;;;;;;;0.70;0.70;;;7.80;73.40;;;7.10;58.64;95190.44;5035695;28;20217;-38
2023/01/14 05:08:11;;;;;;;0.70;0.70;;;7.80;73.30;;;7.10;59.06;95192.25;5035446;28;20196;-39
2023/01/14 05:10:39;;;;;;;0.70;0.70;;;7.80;73.40;;;7.07;58.95;95200.38;5035536;28;20201;-37
2023/01/14 05:13:07;;;;;;;0.60;0.60;;;7.80;73.40;;;7.03;59.34;95190.28;5051140;28;20216;-39
2023/01/14 05:15:39;;;;;;;0.70;0.70;;;7.80;73.30;;;6.99;59.21;95190.78;5035557;28;20212;-39
2023/01/14 05:18:10;;;;;;;0.70;0.70;;;7.80;73.20;;;6.92;59.24;95189.78;5035604;28;20566;-39
2023/01/14 05:20:38;;;;;;;0.80;0.80;;;7.80;73.10;;;6.84;59.05;95182.78;5035980;28;20192;-36
2023/01/14 05:23:11;;;;;;;0.70;0.70;;;7.70;73.00;;;6.76;59.20;95199.22;5034526;28;20200;-39
2023/01/14 05:25:39;;;;;;;0.70;0.70;;;7.70;73.00;;;6.75;59.48;95207.22;5035398;28;20291;-40
2023/01/14 05:28:10;;;;;;;0.70;0.70;;;7.70;73.20;;;6.73;59.32;95207.38;5035219;28;20197;-37
2023/01/14 05:30:37;;;;;;;0.90;0.90;;;7.60;73.20;;;6.69;59.28;95201.66;5035454;28;20177;-40
2023/01/14 05:33:04;;;;;;;0.75;0.75;;;7.60;74.20;;;6.67;59.51;95205.41;5035175;28;20263;-39
2023/01/14 05:35:32;;;;;;;0.70;0.70;;;7.60;73.10;;;6.60;59.34;95212.25;5034293;28;20208;-37
2023/01/14 05:38:00;;;;;;;0.70;0.70;;;7.50;73.00;;;6.51;59.24;95211.41;5035318;28;20201;-40
2023/01/14 05:40:27;;;;;;;0.88;0.88;;;7.50;72.90;;;6.41;59.58;95219.38;5035319;28;20196;-40
2023/01/14 05:45:41;;;;;;;0.80;0.80;;;7.30;73.00;;;6.23;59.54;95215.03;5035172;28;20197;-40
2023/01/14 05:48:12;;;;;;;0.70;0.70;;;7.20;73.00;;;6.17;59.58;95225.28;5034868;28;20254;-37
2023/01/14 05:50:39;;;;;;;0.73;0.73;;;7.10;73.10;;;6.10;59.71;95219.88;5034888;28;20196;-39
2023/01/14 05:53:07;;;;;;;0.85;0.85;;;7.00;73.20;;;6.05;59.78;95219.53;5035346;28;20580;-38
2023/01/14 05:55:35;;;;;;;0.70;0.70;;;7.00;73.20;;;6.01;60.11;95213.03;5034973;28;20212;-40
2023/01/14 05:58:05;;;;;;;0.70;0.70;;;7.00;73.40;;;5.99;59.82;95210.56;5035020;28;20200;-36
2023/01/14 06:06:20;;;;;;;0.70;0.70;;;6.80;73.60;;;5.86;59.87;95213.56;5035149;28;20181;-36
2023/01/14 06:08:57;;;;;;;0.70;0.70;;;6.80;73.60;;;5.87;59.96;95212.59;5034273;28;20185;-40
2023/01/14 06:11:27;;;;;;;0.70;0.70;;;6.60;73.50;;;5.87;59.98;95222.19;5033970;28;20188;-40
2023/01/14 06:13:57;;;;;;;0.70;0.70;;;6.60;73.50;;;5.88;59.92;95216.00;5034684;28;20209;-37
2023/01/14 06:16:27;;;;;;;0.70;0.70;;;6.60;73.50;;;5.87;60.25;95216.97;5034786;28;20227;-39
2023/01/14 06:18:55;;;;;;;0.80;0.80;;;6.60;73.50;;;5.91;60.22;95215.72;5035171;28;20191;-39
2023/01/14 06:21:30;;;;;;;0.80;0.80;;;6.50;73.80;;;5.96;59.94;95221.25;5034704;28;20292;-39
2023/01/14 06:23:58;;;;;;;0.80;0.80;;;6.50;73.60;;;5.99;60.01;95225.38;5034982;28;20188;-39
2023/01/14 06:26:28;;;;;;;0.70;0.70;;;6.50;73.80;;;6.04;59.98;95225.72;5034872;28;20219;-39
2023/01/14 06:29:01;;;;;;;0.70;0.70;;;6.60;73.80;;;6.11;59.73;95225.91;5034505;28;20181;-39
2023/01/14 06:31:28;;;;;;;0.70;0.70;;;6.60;73.50;;;6.15;59.66;95228.06;5034683;28;20193;-39
2023/01/14 06:33:57;;;;;;;0.70;0.70;;;6.70;73.60;;;6.17;59.18;95220.88;5034707;28;20208;-38
2023/01/14 06:36:25;;;;;;;0.70;0.70;;;6.70;73.60;;;6.20;59.50;95220.59;5034706;28;20251;-39
2023/01/14 06:38:52;;;;;;;0.70;0.70;;;6.80;73.70;;;6.22;58.95;95223.84;5034374;28;20612;-37
2023/01/14 06:41:19;;;;;;;0.63;0.63;;;6.80;73.60;;;6.25;59.15;95233.16;5034545;28;20204;-39
2023/01/14 06:43:49;;;;;;;0.70;0.70;;;6.90;73.70;;;6.25;59.21;95233.94;5034564;28;20582;-39
2023/01/14 06:46:17;;;;;;;0.70;0.70;;;6.90;73.70;;;6.29;58.94;95244.88;5034660;28;20525;-34
2023/01/14 06:48:45;;;;;;;0.70;0.70;;;6.90;73.60;;;6.29;59.08;95244.88;5034679;28;20243;-44
2023/01/14 06:51:16;;;;;;;0.80;0.80;;;6.90;73.50;;;6.29;58.91;95249.28;5034586;28;20280;-33
2023/01/14 06:53:43;;;;;;;0.70;0.70;;;7.00;73.40;;;6.30;59.02;95259.53;5033729;28;20709;-33
2023/01/14 06:56:16;;;;;;;0.70;0.70;;;7.00;73.30;;;6.29;59.00;95257.09;5034364;28;20628;-33
2023/01/14 06:58:47;;;;;;;0.70;0.70;;;6.90;73.20;;;6.30;58.91;95264.75;5034191;28;20173;-33
2023/01/14 07:01:15;;;;;;;0.70;0.70;;;7.00;73.20;;;6.30;58.86;95258.69;5034750;28;20277;-33
2023/01/14 07:03:42;;;;;;;0.60;0.60;;;7.00;73.10;;;6.29;58.90;95252.69;5036437;28;20224;-42
2023/01/14 07:06:09;;;;;;;0.70;0.70;;;7.00;73.20;;;6.24;58.66;95254.94;5037877;28;20204;-41
2023/01/14 07:08:36;;;;;;;0.70;0.70;;;7.00;73.00;;;6.19;58.92;95255.41;5037765;28;20189;-40
2023/01/14 07:11:06;;;;;;;0.60;0.60;;;7.00;72.80;;;6.13;58.90;95247.41;5038405;28;20197;-39
2023/01/14 07:13:33;;;;;;;0.70;0.70;;;7.10;72.80;;;6.07;59.07;95247.06;5037933;28;20212;-39
2023/01/14 07:16:00;;;;;;;0.80;0.80;;;7.00;72.80;;;6.04;59.12;95247.38;5037793;28;20197;-40
2023/01/14 07:18:28;;;;;;;0.70;0.70;;;7.00;72.70;;;6.02;59.15;95253.72;5036922;28;20203;-39
2023/01/14 07:20:57;;;;;;;0.70;0.70;;;7.00;72.70;;;5.96;59.25;95252.50;5037249;28;20276;-40
2023/01/14 07:23:26;;;;;;;0.90;0.90;;;6.90;72.70;;;5.92;59.18;95248.59;5037937;28;20185;-43
2023/01/14 07:25:55;;;;;;;0.70;0.70;;;6.90;72.70;;;5.87;59.10;95251.66;5036978;28;20640;-39
2023/01/14 07:28:27;;;;;;;0.70;0.70;;;6.90;72.70;;;5.82;59.38;95251.28;5037299;28;20204;-41
2023/01/14 07:30:55;;;;;;;0.80;0.80;;;6.80;72.80;;;5.79;59.51;95248.19;5036769;28;20313;-39
2023/01/14 07:33:23;;;;;;;0.70;0.70;;;6.80;73.00;;;5.76;59.50;95241.47;5036496;28;20189;-40
2023/01/14 07:35:52;;;;;;;0.90;0.90;;;6.70;73.00;;;5.76;59.61;95251.88;5037348;28;20189;-41
2023/01/14 07:38:21;;;;;;;0.70;0.70;;;6.70;73.30;;;5.76;59.72;95250.13;5037159;28;20189;-41
2023/01/14 07:40:49;;;;;;;0.80;0.80;;;6.70;73.40;;;5.79;59.66;95254.19;5037274;28;20267;-38
2023/01/14 07:43:16;;;;;;;0.90;0.90;;;6.70;73.40;;;5.81;59.89;95256.63;5037195;28;20233;-41
2023/01/14 07:45:43;;;;;;;0.85;0.85;;;6.70;73.50;;;5.81;59.91;95246.22;5037422;28;20574;-41
2023/01/14 07:48:10;;;;;;;0.70;0.70;;;6.70;74.40;;;5.84;59.81;95244.13;5037285;28;20589;-40
2023/01/14 07:50:37;;;;;;;0.70;0.70;;;6.70;73.60;;;5.87;59.92;95243.84;5052803;28;20196;-36
2023/01/14 07:53:04;;;;;;;0.80;0.80;;;6.70;73.60;;;5.93;59.89;95251.03;5037064;28;20646;-39
2023/01/14 07:55:33;;;;;;;0.80;0.80;;;6.70;73.60;;;5.97;59.84;95253.31;5036848;28;20245;-41
2023/01/14 07:58:00;;;;;;;0.70;0.70;;;6.70;73.60;;;6.00;59.68;95246.03;5037164;28;20498;-41
2023/01/14 08:00:27;;;;;;;0.70;0.70;;;6.80;73.60;;;6.03;59.58;95244.91;5029049;28;20201;-41
2023/01/14 08:02:54;;;;;;;0.80;0.80;;;6.80;73.70;;;6.06;59.82;95242.00;5035568;28;20532;-41
2023/01/14 08:05:21;;;;;;;0.80;0.80;;;6.80;73.60;;;6.11;59.64;95229.31;5017428;28;20534;-41
2023/01/14 08:07:48;;;;;;;0.70;0.70;;;6.80;73.60;;;6.16;59.44;95237.47;5017410;28;20267;-36
2023/01/14 08:10:15;;;;;;;0.70;0.70;;;6.90;73.70;;;6.19;59.36;95236.34;5020138;28;20244;-41
2023/01/14 08:25:31;;;;;;;0.80;0.80;;;7.00;73.00;;;7.13;57.80;95257.13;5069261;28;20565;-34
2023/01/14 08:27:58;;;;;;;0.70;0.70;;;7.40;74.00;;;7.16;58.16;95256.81;5049109;28;20204;-34
2023/01/14 08:30:25;;;;;;;0.80;0.80;;;7.50;74.10;;;7.17;58.02;95248.81;5049523;28;20207;-32
2023/01/14 08:32:52;;;;;;;0.70;0.70;;;7.70;73.40;;;7.20;57.97;95263.31;5032673;28;20197;-32
2023/01/14 08:35:19;;;;;;;0.70;0.70;;;7.90;73.20;;;7.22;57.42;95259.56;5028936;28;20276;-32
2023/01/14 08:37:47;;;;;;;0.70;0.70;;;7.90;72.50;;;7.27;57.46;95266.13;5028579;28;20539;-32
2023/01/14 08:40:17;;;;;;;0.70;0.70;;;7.90;72.40;;;7.31;57.07;95265.63;5029385;28;20192;-32
2023/01/14 08:42:44;;;;;;;0.70;0.70;;;7.90;72.30;;;7.31;56.76;95260.41;5036943;28;20211;-32
2023/01/14 08:45:12;;;;;;;0.70;0.70;;;7.90;72.10;;;7.32;56.77;95266.44;5039342;28;20207;-32
2023/01/14 08:47:39;;;;;;;0.80;0.80;;;7.90;72.20;;;7.37;57.07;95261.53;5047509;27;20557;-33
2023/01/14 08:50:06;;;;;;;0.70;0.70;;;7.90;72.30;;;7.42;57.19;95263.66;5014839;28;20189;-32
2023/01/14 08:52:33;;;;;;;0.70;0.70;;;8.00;72.30;;;7.47;56.99;95275.25;5043371;28;20298;-32
2023/01/14 08:55:00;;;;;;;0.70;0.70;;;8.00;72.10;;;7.53;56.54;95276.38;5036580;28;20216;-32
2023/01/14 08:57:28;;;;;;;0.80;0.80;;;8.00;71.90;;;7.55;56.26;95284.88;5043303;28;20248;-32
2023/01/14 08:59:55;;;;;;;0.70;0.70;;;8.00;71.70;;;7.57;56.38;95272.47;5048467;27;20494;-32
2023/01/14 09:02:22;;;;;;;0.70;0.70;;;8.10;72.10;;;7.61;56.36;95263.34;5048307;28;20188;-32
2023/01/14 09:04:50;;;;;;;0.70;0.70;;;8.10;71.80;;;7.64;56.37;95268.25;5046749;28;20631;-32
2023/01/14 09:18:21;;;;;;;0.70;0.70;;;8.20;71.70;;;7.75;55.55;95282.75;5042412;28;20188;-34
2023/01/14 09:20:48;;;;;;;0.80;0.80;;;8.20;71.50;;;7.79;55.56;95278.03;5035656;28;20638;-32
2023/01/14 09:23:15;;;;;;;0.77;0.77;;;8.20;71.60;;;7.85;55.83;95280.78;5037155;28;20201;-33
2023/01/14 09:25:42;;;;;;;0.80;0.80;;;8.30;71.70;;;7.92;55.44;95282.72;5030658;28;20206;-32
2023/01/14 09:28:09;;;;;;;0.70;0.70;;;8.30;71.40;;;7.94;55.08;95275.53;5016690;28;20211;-32
2023/01/14 09:30:37;;;;;;;0.70;0.70;;;8.30;71.30;;;7.96;54.92;95284.03;5013726;28;20193;-32
2023/01/14 09:33:06;;;;;;;0.70;0.70;;;8.40;71.00;;;7.99;54.49;95287.09;5033860;28;20291;-32
2023/01/14 09:35:33;;;;;;;0.70;0.70;;;8.40;70.90;;;8.00;54.50;95285.31;5025793;28;20201;-32
2023/01/14 09:38:02;;;;;;;0.70;0.70;;;8.40;70.80;;;8.03;54.49;95284.97;5035138;28;20607;-39
2023/01/14 09:40:29;;;;;;;0.70;0.70;;;8.40;70.70;;;8.05;54.15;95275.19;5033552;28;20204;-40
2023/01/14 09:42:57;;;;;;;0.70;0.70;;;8.30;70.70;;;8.11;54.24;95276.31;5035358;28;20615;-35
2023/01/14 09:45:33;;;;;;;0.70;0.70;;;8.40;70.60;;;8.10;54.02;95261.63;5035179;28;20196;-37
2023/01/14 09:48:22;;;;;;;0.70;0.70;;;8.40;71.50;;;8.10;54.44;95256.41;5015726;28;20298;-35
2023/01/14 09:50:58;;;;;;;0.70;0.70;;;8.50;70.90;;;8.15;54.29;95249.69;5019100;28;20235;-34
2023/01/14 09:54:29;;;;;;;0.70;0.70;;;8.50;70.60;;;8.22;54.61;95251.63;5017401;28;20216;-34
2023/01/14 09:57:08;;;;;;;0.70;0.70;;;8.60;69.80;;;8.24;54.16;95253.09;5012042;28;20209;-33
2023/01/14 09:59:59;;;;;;;0.70;0.70;;;8.60;70.20;;;8.27;53.54;95259.78;5023935;28;20303;-33
2023/01/14 10:02:41;;;;;;;0.70;0.70;;;8.70;69.60;;;8.29;53.68;95244.75;5016613;28;20217;-33
2023/01/14 10:05:32;;;;;;;0.70;0.70;;;8.70;69.90;;;8.34;53.62;95235.41;5030126;28;20205;-40
2023/01/14 10:08:10;;;;;;;0.70;0.70;;;8.70;69.70;;;8.38;53.80;95238.50;4999602;28;20185;-34
2023/01/14 10:10:43;;;;;;;0.75;0.75;;;8.80;70.20;;;8.42;52.69;95231.13;5014001;28;20631;-34
2023/01/14 10:13:32;;;;;;;0.80;0.80;;;8.80;69.00;;;8.48;53.05;95228.69;5013545;28;20188;-33
2023/01/14 10:16:11;;;;;;;0.70;0.70;;;8.80;69.50;;;8.58;53.47;95218.03;4997935;28;20176;-33
2023/01/14 10:19:12;;;;;;;0.80;0.80;;;8.90;70.00;;;8.67;53.58;95221.41;5030714;28;20627;-41
2023/01/14 10:21:58;;;;;;;0.70;0.70;;;9.00;69.80;;;8.77;52.88;95208.09;5014871;28;20256;-34
2023/01/14 10:24:27;;;;;;;0.80;0.80;;;9.10;69.30;;;8.83;52.85;95214.44;5014323;28;20251;-34
2023/01/14 10:26:54;;;;;;;0.80;0.80;;;9.20;69.60;;;8.89;53.25;95203.28;5014650;28;20201;-45
2023/01/14 10:29:26;;;;;;;0.70;0.70;;;9.20;69.70;;;8.94;52.33;95203.56;5013427;28;20197;-33
2023/01/14 10:31:59;;;;;;;0.90;0.90;;;9.30;69.20;;;8.96;51.99;95205.03;5024578;28;20220;-33
2023/01/14 10:34:49;;;;;;;0.68;0.68;;;9.40;69.00;;;8.96;50.91;95197.19;5028240;28;20216;-43
2023/01/14 10:37:16;;;;;;;0.80;0.80;;;9.30;67.70;;;8.97;51.10;95197.97;5022277;28;20766;-42
2023/01/14 10:39:52;;;;;;;0.70;0.70;;;9.30;68.40;;;9.00;50.79;95195.03;5023039;28;20211;-33
2023/01/14 10:42:26;;;;;;;0.70;0.70;;;9.40;67.60;;;9.01;50.76;95204.50;5033198;28;20177;-41
2023/01/14 10:44:55;;;;;;;0.70;0.70;;;9.40;67.30;;;9.00;50.42;95189.00;5033143;28;20373;-36
2023/01/14 10:47:26;;;;;;;0.80;0.80;;;9.50;67.60;;;8.97;49.42;95188.34;5034076;28;20205;-33
2023/01/14 10:50:05;;;;;;;0.70;0.70;;;9.40;66.90;;;8.99;50.11;95182.13;5033876;28;20204;-34
2023/01/14 10:52:34;;;;;;;0.70;0.70;;;9.40;67.10;;;8.97;49.12;95180.50;5034268;28;20185;-43
2023/01/14 10:55:10;;;;;;;0.75;0.75;;;9.30;66.50;;;8.92;50.15;95172.38;5033458;28;20225;-34
2023/01/14 10:58:10;;;;;;;0.70;0.70;;;9.30;67.30;;;8.92;50.14;95176.78;5034026;28;20173;-34
2023/01/14 11:00:44;;;;;;;0.70;0.70;;;9.40;66.70;;;8.92;49.86;95168.91;5031290;28;20199;-35
2023/01/14 11:03:30;;;;;;;0.60;0.60;;;9.40;66.80;;;8.93;50.54;95171.34;5010791;28;20193;-40
2023/01/14 11:06:06;;;;;;;0.70;0.70;;;9.40;66.70;;;8.93;50.34;95179.19;5014112;28;20187;-34
2023/01/14 11:08:41;;;;;;;0.70;0.70;;;9.40;66.90;;;8.95;49.68;95172.00;4996875;28;20227;-41
2023/01/14 11:11:11;;;;;;;0.70;0.70;;;9.40;66.60;;;8.91;49.68;95165.50;5012697;28;20520;-38
2023/01/14 11:13:46;;;;;;;0.60;0.60;;;9.40;66.80;;;8.91;49.91;95162.88;5012853;28;20607;-41
2023/01/14 11:16:27;;;;;;;0.80;0.80;;;9.40;66.90;;;8.91;49.80;95159.44;5013215;28;20204;-34
2023/01/14 11:18:59;;;;;;;0.70;0.70;;;9.40;66.40;;;8.89;48.97;95149.16;5013978;28;20190;-33
2023/01/14 11:21:41;;;;;;;0.70;0.70;;;9.40;66.10;;;8.92;50.11;95140.97;5013106;28;20494;-35
2023/01/14 11:24:35;;;;;;;0.70;0.70;;;9.40;67.00;;;8.99;50.47;95137.66;5013516;28;20282;-33
2023/01/14 11:27:16;;;;;;;0.60;0.60;;;9.50;67.00;;;9.05;50.22;95129.09;5012513;28;20589;-33
2023/01/14 11:29:57;;;;;;;0.70;0.70;;;9.50;66.80;;;9.06;50.20;95126.28;5012130;28;20242;-35
2023/01/14 11:32:36;;;;;;;0.70;0.70;;;9.60;66.70;;;9.13;50.17;95118.56;5013418;28;20197;-38
2023/01/14 11:35:09;;;;;;;0.60;0.60;;;9.60;66.90;;;9.25;49.25;95119.75;5013611;28;20620;-34
2023/01/14 11:37:49;;;;;;;0.70;0.70;;;9.70;66.30;;;9.40;49.22;95103.25;5013364;28;20219;-34